KBRY/BRY METAR and TAF weather

Enter ICAO airport designator
Station Type Date Time Source
KBRY METAR 2019/08/25 17:55 UTC NOAA

KBRY 251755Z AUTO 00000KT 10SM SCT025 BKN039 26/18 A3003 RMK AO1


Station Type Date Time Source
KBRY Decoded METAR 2019/08/25 17:55 UTC NOAA

Station name not available
Aug 25, 2019 - 01:55 PM EDT / 2019.08.25 1755 UTC
Wind: Calm:0
Visibility: 10 mile(s):0
Sky conditions: mostly cloudy
Temperature: 78 F (26 C)
Dew Point: 64 F (18 C)
Relative Humidity: 61%
Pressure (altimeter): 30.03 in. Hg (1016 hPa)
ob: KBRY 251755Z AUTO 00000KT 10SM SCT025 BKN039 26/18 A3003 RMK AO1
cycle: 18

Station Type Date Time Source
KBRY TAF UTC NOAA

Error!

Example: see airport list